createdAt,value
2023-02-13T00:00:25.676Z,7.00
2023-02-13T00:02:53.426Z,7.63
2023-02-13T00:05:21.199Z,6.40
2023-02-13T00:07:48.933Z,7.45
2023-02-13T00:10:16.784Z,6.95
2023-02-13T00:12:44.593Z,7.20
2023-02-13T00:15:12.387Z,7.63
2023-02-13T00:17:40.186Z,6.50
2023-02-13T00:20:09.374Z,6.90
2023-02-13T00:22:38.028Z,6.32
2023-02-13T00:25:06.616Z,7.00
2023-02-13T00:27:34.633Z,6.68
2023-02-13T00:30:03.286Z,7.00
2023-02-13T00:32:31.904Z,7.30
2023-02-13T00:34:59.715Z,6.60
2023-02-13T00:37:27.657Z,6.72
2023-02-13T00:39:56.270Z,6.60
2023-02-13T00:42:26.537Z,6.07
2023-02-13T00:44:54.710Z,5.80
2023-02-13T00:47:24.187Z,6.13
2023-02-13T00:49:51.966Z,7.22
2023-02-13T00:52:19.776Z,6.15
2023-02-13T00:54:47.810Z,6.20
2023-02-13T00:57:15.632Z,6.45
2023-02-13T00:59:44.068Z,6.88
2023-02-13T01:02:11.884Z,6.45
2023-02-13T01:04:40.718Z,7.40
2023-02-13T01:07:08.508Z,8.57
2023-02-13T01:09:36.325Z,8.35
2023-02-13T01:12:04.230Z,10.18
2023-02-13T01:14:32.040Z,9.85
2023-02-13T01:16:59.795Z,11.60
2023-02-13T01:19:28.170Z,13.85
2023-02-13T01:21:55.934Z,13.02
2023-02-13T01:24:23.757Z,14.30
2023-02-13T01:26:51.542Z,12.25
2023-02-13T01:29:22.099Z,11.07
2023-02-13T01:31:50.005Z,15.60
2023-02-13T01:34:19.195Z,15.77
2023-02-13T01:36:47.031Z,17.80
2023-02-13T01:39:18.021Z,17.55
2023-02-13T01:41:45.900Z,17.40
2023-02-13T01:44:35.447Z,15.90
2023-02-13T01:47:03.318Z,17.35
2023-02-13T01:49:31.229Z,17.65
2023-02-13T01:51:59.004Z,17.95
2023-02-13T01:54:31.222Z,18.80
2023-02-13T01:57:03.991Z,17.13
2023-02-13T01:59:34.212Z,16.52
2023-02-13T02:02:02.095Z,15.95
2023-02-13T02:04:34.572Z,15.43
2023-02-13T02:07:09.330Z,16.38
2023-02-13T02:09:39.520Z,14.35
2023-02-13T02:12:07.845Z,13.35
2023-02-13T02:14:39.594Z,12.75
2023-02-13T02:17:12.765Z,15.05
2023-02-13T02:19:49.819Z,15.23
2023-02-13T02:22:26.873Z,16.27
2023-02-13T02:24:54.839Z,17.45
2023-02-13T02:27:22.787Z,15.38
2023-02-13T02:30:12.577Z,15.80
2023-02-13T02:32:47.500Z,16.90
2023-02-13T02:35:18.385Z,18.05
2023-02-13T02:37:49.261Z,17.17
2023-02-13T02:40:17.012Z,18.73
2023-02-13T02:43:06.717Z,19.00
2023-02-13T02:45:48.696Z,27.80
2023-02-13T02:49:02.903Z,32.05
2023-02-13T02:51:40.392Z,32.13
2023-02-13T02:54:45.276Z,32.15
2023-02-13T02:57:19.493Z,31.08
2023-02-13T03:00:13.475Z,32.08
2023-02-13T03:02:59.973Z,30.52
2023-02-13T03:05:52.526Z,30.83
2023-02-13T03:08:40.353Z,30.67
2023-02-13T03:11:27.477Z,33.85
2023-02-13T03:13:55.451Z,34.58
2023-02-13T03:16:44.400Z,34.08
2023-02-13T03:19:45.777Z,34.45
2023-02-13T03:22:29.451Z,31.85
2023-02-13T03:25:18.624Z,29.95
2023-02-13T03:28:05.112Z,30.15
2023-02-13T03:30:33.017Z,29.25
2023-02-13T03:33:06.654Z,27.67
2023-02-13T03:36:09.247Z,27.27
2023-02-13T03:38:37.028Z,28.45
2023-02-13T03:41:21.121Z,27.95
2023-02-13T03:43:56.121Z,27.13
2023-02-13T03:46:25.353Z,25.65
2023-02-13T03:49:12.696Z,26.40
2023-02-13T03:51:46.416Z,26.75
2023-02-13T03:54:16.997Z,22.27
2023-02-13T03:57:04.185Z,21.52
2023-02-13T03:59:34.704Z,21.75
2023-02-13T04:02:08.204Z,21.77
2023-02-13T04:04:36.052Z,20.42
2023-02-13T04:07:05.592Z,21.30
2023-02-13T04:09:35.614Z,19.27
2023-02-13T04:12:10.851Z,19.23
2023-02-13T04:14:44.538Z,20.10
2023-02-13T04:17:14.744Z,19.88
2023-02-13T04:19:42.781Z,19.83
2023-02-13T04:22:12.838Z,18.13
2023-02-13T04:24:40.714Z,18.60
2023-02-13T04:27:08.728Z,19.77
2023-02-13T04:29:36.508Z,17.92
2023-02-13T04:32:05.660Z,18.40
2023-02-13T04:34:33.545Z,18.10
2023-02-13T04:37:01.304Z,17.23
2023-02-13T04:39:29.144Z,19.23
2023-02-13T04:41:56.917Z,21.90
2023-02-13T04:44:24.804Z,21.95
2023-02-13T04:46:52.601Z,22.13
2023-02-13T04:49:20.374Z,23.40
2023-02-13T04:51:48.177Z,26.63
2023-02-13T04:54:15.968Z,29.95
2023-02-13T04:56:43.765Z,31.55
2023-02-13T04:59:11.521Z,27.70
2023-02-13T05:01:39.430Z,28.73
2023-02-13T05:04:07.342Z,26.30
2023-02-13T05:06:35.152Z,23.70
2023-02-13T05:09:02.935Z,24.60
2023-02-13T05:11:30.727Z,23.45
2023-02-13T05:13:58.598Z,22.65
2023-02-13T05:16:26.426Z,24.33
2023-02-13T05:18:55.085Z,23.55
2023-02-13T05:21:41.502Z,21.45
2023-02-13T05:24:09.317Z,20.95
2023-02-13T05:26:37.192Z,21.95
2023-02-13T05:29:20.406Z,21.80
2023-02-13T05:31:48.959Z,21.80
2023-02-13T05:34:17.110Z,21.23
2023-02-13T05:36:44.884Z,21.60
2023-02-13T05:39:13.012Z,22.02
2023-02-13T05:41:40.816Z,21.52
2023-02-13T05:44:08.896Z,21.98
2023-02-13T05:46:39.419Z,20.40
2023-02-13T05:49:07.905Z,20.90
2023-02-13T05:51:35.705Z,22.60
2023-02-13T05:54:03.813Z,21.15
2023-02-13T05:56:31.695Z,20.83
2023-02-13T05:58:59.610Z,20.30
2023-02-13T06:01:27.397Z,23.98
2023-02-13T06:03:57.137Z,21.55
2023-02-13T06:06:26.279Z,22.45
2023-02-13T06:08:54.099Z,23.90
2023-02-13T06:11:21.917Z,36.70
2023-02-13T06:13:51.892Z,36.45
2023-02-13T06:16:19.728Z,48.38
2023-02-13T06:18:47.612Z,32.92
2023-02-13T06:21:15.439Z,33.28
2023-02-13T06:23:43.252Z,42.65
2023-02-13T06:26:11.051Z,38.97
2023-02-13T06:28:38.931Z,32.65
2023-02-13T06:31:06.905Z,36.05
2023-02-13T06:33:34.830Z,41.20
2023-02-13T06:36:02.832Z,41.55
2023-02-13T06:38:32.807Z,39.55
2023-02-13T06:41:04.538Z,39.13
2023-02-13T06:43:32.363Z,39.95
2023-02-13T06:46:00.393Z,42.80
2023-02-13T06:48:28.328Z,39.00
2023-02-13T06:50:56.338Z,36.90
2023-02-13T06:53:25.731Z,36.47
2023-02-13T06:55:53.648Z,37.10
2023-02-13T06:58:22.209Z,35.70
2023-02-13T07:00:50.549Z,33.28
2023-02-13T07:03:18.492Z,34.83
2023-02-13T07:05:52.019Z,32.58
2023-02-13T07:08:20.196Z,33.72
2023-02-13T07:10:48.038Z,31.65
2023-02-13T07:13:15.803Z,36.95
2023-02-13T07:15:43.651Z,34.83
2023-02-13T07:18:11.429Z,35.75
2023-02-13T07:20:39.284Z,31.40
2023-02-13T07:23:07.760Z,31.55
2023-02-13T07:25:35.649Z,29.40
2023-02-13T07:28:04.687Z,26.10
2023-02-13T07:30:33.135Z,22.75
2023-02-13T07:33:01.823Z,23.88
2023-02-13T07:35:29.672Z,21.17
2023-02-13T07:37:57.502Z,20.75
2023-02-13T07:40:25.308Z,20.13
2023-02-13T07:42:53.106Z,19.88
2023-02-13T07:45:20.962Z,18.77
2023-02-13T07:47:48.796Z,21.17
2023-02-13T07:50:16.684Z,20.05
2023-02-13T07:52:44.495Z,19.73
2023-02-13T07:55:12.307Z,17.65
2023-02-13T07:57:40.150Z,16.85
2023-02-13T08:00:08.271Z,17.17
2023-02-13T08:02:42.529Z,15.20
2023-02-13T08:05:10.310Z,15.65
2023-02-13T08:07:38.179Z,15.00
2023-02-13T08:10:26.959Z,13.80
2023-02-13T08:12:55.211Z,14.43
2023-02-13T08:15:23.906Z,17.00
2023-02-13T08:17:55.143Z,16.08
2023-02-13T08:20:24.124Z,15.70
2023-02-13T08:22:51.991Z,17.88
2023-02-13T08:25:19.887Z,17.15
2023-02-13T08:27:49.960Z,17.85
2023-02-13T08:30:17.859Z,17.58
2023-02-13T08:32:54.277Z,17.17
2023-02-13T08:35:23.986Z,17.60
2023-02-13T08:37:52.127Z,17.10
2023-02-13T08:40:24.497Z,16.70
2023-02-13T08:42:54.087Z,17.13
2023-02-13T08:45:22.445Z,17.00
2023-02-13T08:47:50.249Z,16.45
2023-02-13T08:50:18.250Z,16.58
2023-02-13T08:52:46.156Z,15.70
2023-02-13T08:55:13.937Z,17.60
2023-02-13T08:57:41.730Z,16.70
2023-02-13T09:00:09.795Z,13.88
2023-02-13T09:02:38.802Z,13.13
2023-02-13T09:05:06.818Z,13.13
2023-02-13T09:07:34.648Z,12.32
2023-02-13T09:10:03.110Z,14.07
2023-02-13T09:12:30.873Z,14.52
2023-02-13T09:14:58.939Z,13.27
2023-02-13T09:17:26.799Z,12.27
2023-02-13T09:19:54.599Z,12.85
2023-02-13T09:22:22.386Z,14.55
2023-02-13T09:24:50.151Z,13.50
2023-02-13T09:27:17.938Z,13.43
2023-02-13T09:29:45.796Z,12.68
2023-02-13T09:32:13.783Z,12.88
2023-02-13T09:34:41.805Z,12.55
2023-02-13T09:37:09.700Z,12.70
2023-02-13T09:39:37.538Z,14.60
2023-02-13T09:42:07.517Z,13.27
2023-02-13T09:44:43.373Z,12.90
2023-02-13T09:47:16.958Z,13.82
2023-02-13T09:49:50.862Z,13.05
2023-02-13T09:52:18.656Z,14.05
2023-02-13T09:54:46.457Z,14.73
2023-02-13T09:57:23.343Z,14.25
2023-02-13T09:59:57.011Z,13.98
2023-02-13T10:02:58.417Z,14.85
2023-02-13T10:05:43.010Z,14.73
2023-02-13T10:08:22.947Z,15.77
2023-02-13T10:11:05.731Z,17.02
2023-02-13T10:13:36.296Z,16.98
2023-02-13T10:16:08.552Z,15.00
2023-02-13T10:18:51.716Z,15.65
2023-02-13T10:21:25.338Z,15.85
2023-02-13T10:24:02.522Z,14.93
2023-02-13T10:26:49.148Z,14.15
2023-02-13T10:29:39.636Z,15.43
2023-02-13T10:32:09.972Z,16.95
2023-02-13T10:34:43.665Z,15.52
2023-02-13T10:37:19.571Z,17.80
2023-02-13T10:39:51.440Z,17.23
2023-02-13T10:42:20.126Z,15.63
2023-02-13T10:44:50.682Z,16.58
2023-02-13T10:47:25.219Z,16.73
2023-02-13T10:50:01.326Z,17.10
2023-02-13T10:52:37.330Z,16.00
2023-02-13T10:55:18.252Z,16.38
2023-02-13T10:58:04.722Z,16.83
2023-02-13T11:00:32.640Z,16.33
2023-02-13T11:03:00.838Z,17.27
2023-02-13T11:05:47.158Z,16.65
2023-02-13T11:08:18.327Z,15.25
2023-02-13T11:10:49.813Z,16.20
2023-02-13T11:13:19.900Z,14.40
2023-02-13T11:16:00.563Z,13.25
2023-02-13T11:18:29.975Z,15.63
2023-02-13T11:21:02.984Z,15.00
2023-02-13T11:23:30.882Z,16.55
2023-02-13T11:26:03.565Z,14.27
2023-02-13T11:28:35.350Z,14.90
2023-02-13T11:31:11.900Z,15.48
2023-02-13T11:33:40.982Z,15.73
2023-02-13T11:36:16.587Z,16.65
2023-02-13T11:38:44.712Z,16.55
2023-02-13T11:41:14.461Z,10.35
2023-02-13T11:43:52.291Z,11.05
2023-02-13T11:46:20.541Z,10.50
2023-02-13T11:48:57.616Z,11.20
2023-02-13T11:51:39.550Z,10.70
2023-02-13T11:54:08.003Z,10.25
2023-02-13T11:57:03.224Z,10.90
2023-02-13T11:59:33.805Z,13.05
2023-02-13T12:02:13.697Z,12.50
2023-02-13T12:04:42.809Z,15.02
2023-02-13T12:07:15.863Z,16.50
2023-02-13T12:09:45.148Z,17.13
2023-02-13T12:12:19.013Z,15.90
2023-02-13T12:14:47.156Z,13.05
2023-02-13T12:17:30.842Z,13.00
2023-02-13T12:19:59.487Z,12.20
2023-02-13T12:22:40.009Z,14.63
2023-02-13T12:25:35.296Z,11.80
2023-02-13T12:28:14.260Z,11.57
2023-02-13T12:30:44.956Z,12.60
2023-02-13T12:33:23.320Z,11.48
2023-02-13T12:35:51.081Z,12.82
2023-02-13T12:38:31.970Z,13.27
2023-02-13T12:41:08.251Z,14.35
2023-02-13T12:43:45.307Z,16.05
2023-02-13T12:46:13.219Z,16.95
2023-02-13T12:48:59.645Z,17.83
2023-02-13T12:51:36.353Z,19.65
2023-02-13T12:54:07.224Z,19.00
2023-02-13T12:56:51.464Z,18.55
2023-02-13T12:59:31.362Z,17.25
2023-02-13T13:02:22.070Z,17.98
2023-02-13T13:04:54.808Z,18.10
2023-02-13T13:07:25.775Z,19.42
2023-02-13T13:09:56.609Z,18.50
2023-02-13T13:12:30.519Z,17.83
2023-02-13T13:14:58.295Z,18.13
2023-02-13T13:17:37.310Z,18.30
2023-02-13T13:20:05.143Z,18.15
2023-02-13T13:22:35.486Z,16.70
2023-02-13T13:25:12.297Z,17.70
2023-02-13T13:27:54.376Z,17.08
2023-02-13T13:30:25.406Z,17.17
2023-02-13T13:32:57.138Z,16.42
2023-02-13T13:35:26.279Z,16.85
2023-02-13T13:38:02.522Z,17.60
2023-02-13T13:40:38.183Z,16.13
2023-02-13T13:43:14.824Z,17.25
2023-02-13T13:45:42.721Z,15.73
2023-02-13T13:48:29.070Z,15.75
2023-02-13T13:50:57.228Z,16.88
2023-02-13T13:53:25.646Z,17.88
2023-02-13T13:55:54.050Z,17.30
2023-02-13T13:58:26.349Z,17.60
2023-02-13T14:01:12.549Z,18.02
2023-02-13T14:03:40.416Z,17.67
2023-02-13T14:06:09.610Z,18.90
2023-02-13T14:08:40.396Z,17.08
2023-02-13T14:11:27.009Z,16.95
2023-02-13T14:13:54.902Z,17.88
2023-02-13T14:16:37.667Z,17.08
2023-02-13T14:19:05.864Z,15.53
2023-02-13T14:21:36.279Z,17.60
2023-02-13T14:24:11.478Z,16.90
2023-02-13T14:26:41.218Z,15.68
2023-02-13T14:29:11.788Z,14.63
2023-02-13T14:31:44.051Z,14.68
2023-02-13T14:34:11.941Z,14.85
2023-02-13T14:36:43.608Z,16.90
2023-02-13T14:39:17.376Z,16.83
2023-02-13T14:41:54.283Z,15.30
2023-02-13T14:44:40.867Z,16.63
2023-02-13T14:47:17.953Z,17.58
2023-02-13T14:49:46.603Z,18.88
2023-02-13T14:52:26.416Z,17.95
2023-02-13T14:54:56.452Z,17.63
2023-02-13T14:57:27.252Z,17.15
2023-02-13T15:00:00.219Z,17.40
2023-02-13T15:02:29.229Z,16.70
2023-02-13T15:04:58.939Z,16.90
2023-02-13T15:07:37.463Z,17.90
2023-02-13T15:10:25.184Z,16.17
2023-02-13T15:13:00.111Z,16.30
2023-02-13T15:15:29.289Z,17.38
2023-02-13T15:18:00.101Z,17.17
2023-02-13T15:20:29.397Z,17.33
2023-02-13T15:22:57.943Z,16.25
2023-02-13T15:25:30.185Z,18.27
2023-02-13T15:27:59.758Z,17.02
2023-02-13T15:30:37.710Z,17.77
2023-02-13T15:33:19.466Z,17.00
2023-02-13T15:35:47.430Z,18.80
2023-02-13T15:38:31.674Z,18.02
2023-02-13T15:41:04.914Z,18.65
2023-02-13T15:43:32.644Z,19.60
2023-02-13T15:46:03.519Z,19.27
2023-02-13T15:48:31.930Z,18.90
2023-02-13T15:51:00.182Z,19.73
2023-02-13T15:53:28.044Z,20.88
2023-02-13T15:55:56.833Z,20.02
2023-02-13T15:58:26.529Z,20.15
2023-02-13T16:00:54.619Z,20.02
2023-02-13T16:03:24.268Z,19.92
2023-02-13T16:05:52.072Z,19.73
2023-02-13T16:08:36.409Z,20.98
2023-02-13T16:11:17.117Z,19.83
2023-02-13T16:14:03.887Z,20.85
2023-02-13T16:16:35.605Z,20.20
2023-02-13T16:19:03.625Z,21.50
2023-02-13T16:21:34.532Z,22.00
2023-02-13T16:24:04.936Z,21.65
2023-02-13T16:26:36.451Z,20.58
2023-02-13T16:29:09.027Z,21.35
2023-02-13T16:31:37.693Z,20.10
2023-02-13T16:34:15.421Z,20.40
2023-02-13T16:36:43.407Z,18.95
2023-02-13T16:39:12.406Z,19.38
2023-02-13T16:41:40.242Z,19.15
2023-02-13T16:44:22.284Z,21.08
2023-02-13T16:47:12.829Z,19.63
2023-02-13T16:49:43.394Z,18.83
2023-02-13T16:52:17.249Z,21.50
2023-02-13T16:54:45.692Z,20.48
2023-02-13T16:57:19.113Z,24.08
2023-02-13T17:02:25.168Z,20.73
2023-02-13T17:04:56.613Z,19.30
2023-02-13T17:07:31.581Z,22.08
2023-02-13T17:10:02.534Z,19.05
2023-02-13T17:12:31.569Z,21.33
2023-02-13T17:14:59.868Z,21.15
2023-02-13T17:17:28.988Z,21.63
2023-02-13T17:19:57.051Z,22.17
2023-02-13T17:22:38.127Z,21.92
2023-02-13T17:25:08.193Z,22.85
2023-02-13T17:27:36.158Z,23.02
2023-02-13T17:30:04.113Z,22.75
2023-02-13T17:32:31.916Z,21.42
2023-02-13T17:34:59.695Z,22.75
2023-02-13T17:37:28.729Z,23.48
2023-02-13T17:39:56.532Z,21.83
2023-02-13T17:42:26.039Z,21.60
2023-02-13T17:44:54.701Z,22.50
2023-02-13T17:47:22.937Z,22.15
2023-02-13T17:49:51.512Z,25.02
2023-02-13T17:52:26.329Z,24.38
2023-02-13T17:54:54.143Z,22.85
2023-02-13T17:57:21.963Z,23.35
2023-02-13T17:59:50.591Z,24.85
2023-02-13T18:02:22.751Z,24.85
2023-02-13T18:04:50.753Z,25.30
2023-02-13T18:07:19.712Z,29.20
2023-02-13T18:09:47.593Z,27.38
2023-02-13T18:12:16.435Z,26.20
2023-02-13T18:14:44.338Z,25.65
2023-02-13T18:17:12.506Z,27.05
2023-02-13T18:19:40.589Z,27.95
2023-02-13T18:22:09.495Z,27.45
2023-02-13T18:24:37.836Z,29.48
2023-02-13T18:27:07.531Z,29.27
2023-02-13T18:29:37.453Z,27.98
2023-02-13T18:32:08.171Z,28.58
2023-02-13T18:34:38.040Z,27.83
2023-02-13T18:37:06.775Z,25.90
2023-02-13T18:39:34.898Z,28.45
2023-02-13T18:42:02.782Z,29.27
2023-02-13T18:44:30.844Z,30.25
2023-02-13T18:47:01.831Z,30.38
2023-02-13T18:49:31.518Z,28.27
2023-02-13T18:52:04.726Z,29.85
2023-02-13T18:54:34.683Z,30.17
2023-02-13T18:57:02.480Z,29.35
2023-02-13T18:59:31.881Z,29.83
2023-02-13T19:01:59.708Z,30.35
2023-02-13T19:04:27.646Z,28.65
2023-02-13T19:06:55.460Z,27.35
2023-02-13T19:09:23.882Z,28.48
2023-02-13T19:11:51.799Z,27.58
2023-02-13T19:14:19.984Z,27.63
2023-02-13T19:16:47.797Z,29.42
2023-02-13T19:19:15.685Z,29.17
2023-02-13T19:21:43.858Z,27.42
2023-02-13T19:24:15.334Z,28.67
2023-02-13T19:26:43.367Z,29.45
2023-02-13T19:29:11.420Z,28.17
2023-02-13T19:31:42.272Z,29.38
2023-02-13T19:34:10.592Z,28.30
2023-02-13T19:36:38.375Z,27.83
2023-02-13T19:39:09.134Z,28.17
2023-02-13T19:41:37.449Z,28.05
2023-02-13T19:44:05.596Z,29.58
2023-02-13T19:46:34.045Z,29.67
2023-02-13T19:49:03.115Z,29.80
2023-02-13T19:51:31.994Z,28.33
2023-02-13T19:54:01.204Z,28.20
2023-02-13T19:56:30.170Z,29.08
2023-02-13T19:58:58.130Z,29.10
2023-02-13T20:01:27.124Z,29.27
2023-02-13T20:03:55.181Z,30.23
2023-02-13T20:06:31.925Z,31.63
2023-02-13T20:09:01.843Z,30.48
2023-02-13T20:11:29.852Z,30.25
2023-02-13T20:14:00.693Z,33.22
2023-02-13T20:16:33.140Z,32.20
2023-02-13T20:19:03.650Z,32.13
2023-02-13T20:21:33.082Z,30.17
2023-02-13T20:24:03.142Z,32.35
2023-02-13T20:26:31.318Z,31.77
2023-02-13T20:29:02.127Z,30.98
2023-02-13T20:31:30.477Z,31.08
2023-02-13T20:33:59.543Z,33.58
2023-02-13T20:36:28.608Z,31.63
2023-02-13T20:38:57.929Z,31.25
2023-02-13T20:41:27.333Z,31.85
2023-02-13T20:43:58.577Z,31.17
2023-02-13T20:46:27.204Z,32.80
2023-02-13T20:48:55.177Z,31.73
2023-02-13T20:51:23.085Z,30.88
2023-02-13T20:53:50.936Z,32.58
2023-02-13T20:56:21.441Z,32.08
2023-02-13T20:58:50.306Z,33.70
2023-02-13T21:01:19.412Z,32.95
2023-02-13T21:03:50.003Z,33.33
2023-02-13T21:06:17.946Z,32.28
2023-02-13T21:08:45.832Z,35.58
2023-02-13T21:11:13.698Z,33.10
2023-02-13T21:13:41.598Z,33.95
2023-02-13T21:16:11.296Z,34.15
2023-02-13T21:18:42.906Z,25.25
2023-02-13T21:21:11.609Z,33.55
2023-02-13T21:23:40.014Z,32.08
2023-02-13T21:26:12.946Z,31.88
2023-02-13T21:28:41.627Z,33.25
2023-02-13T21:31:13.857Z,33.08
2023-02-13T21:33:42.099Z,34.87
2023-02-13T21:36:11.356Z,33.40
2023-02-13T21:38:40.212Z,34.70
2023-02-13T21:41:09.402Z,34.10
2023-02-13T21:43:42.071Z,34.15
2023-02-13T21:46:30.145Z,34.00
2023-02-13T21:48:59.120Z,33.72
2023-02-13T21:51:28.468Z,33.08
2023-02-13T21:53:56.674Z,36.45
2023-02-13T21:56:26.342Z,35.67
2023-02-13T21:58:54.513Z,35.08
2023-02-13T22:01:27.211Z,34.65
2023-02-13T22:03:59.067Z,36.38
2023-02-13T22:06:28.857Z,34.33
2023-02-13T22:09:00.668Z,35.40
2023-02-13T22:11:28.572Z,37.35
2023-02-13T22:13:57.321Z,36.65
2023-02-13T22:16:25.415Z,36.72
2023-02-13T22:18:53.325Z,36.30
2023-02-13T22:21:22.472Z,37.92
2023-02-13T22:23:51.107Z,36.45
2023-02-13T22:26:20.455Z,35.65
2023-02-13T22:28:48.583Z,35.50
2023-02-13T22:31:16.927Z,36.60
2023-02-13T22:33:47.603Z,36.35
2023-02-13T22:36:16.836Z,35.60
2023-02-13T22:38:45.232Z,38.20
2023-02-13T22:41:14.316Z,35.97
2023-02-13T22:43:42.366Z,37.05
2023-02-13T22:46:10.192Z,35.80
2023-02-13T22:48:38.707Z,34.38
2023-02-13T22:51:10.470Z,35.10
2023-02-13T22:53:38.560Z,34.47
2023-02-13T22:56:06.843Z,36.40
2023-02-13T22:58:34.908Z,32.33
2023-02-13T23:01:02.913Z,34.30
2023-02-13T23:03:33.010Z,32.88
2023-02-13T23:06:03.351Z,34.58
2023-02-13T23:08:31.888Z,34.55
2023-02-13T23:11:18.329Z,34.42
2023-02-13T23:13:48.174Z,40.63
2023-02-13T23:16:16.359Z,40.13
2023-02-13T23:18:44.250Z,39.65
2023-02-13T23:21:12.093Z,41.55
2023-02-13T23:23:39.963Z,40.80
2023-02-13T23:26:08.361Z,41.70
2023-02-13T23:28:36.182Z,41.97
2023-02-13T23:31:04.378Z,42.58
2023-02-13T23:33:32.321Z,41.05
2023-02-13T23:36:00.128Z,41.05
2023-02-13T23:38:30.087Z,41.95
2023-02-13T23:40:58.152Z,39.03
2023-02-13T23:43:26.205Z,39.22
2023-02-13T23:45:54.003Z,38.35
2023-02-13T23:48:21.801Z,42.28
2023-02-13T23:50:51.075Z,38.25
2023-02-13T23:53:18.843Z,41.53
2023-02-13T23:55:46.621Z,40.47
2023-02-13T23:58:14.412Z,40.25
